createdAt,value
2019-02-18T00:00:30.606Z,6.64
2019-02-18T00:02:59.244Z,6.61
2019-02-18T00:05:27.729Z,6.63
2019-02-18T00:07:56.317Z,6.64
2019-02-18T00:10:24.814Z,6.63
2019-02-18T00:12:53.776Z,6.57
2019-02-18T00:15:22.363Z,6.55
2019-02-18T00:17:50.836Z,6.56
2019-02-18T00:20:19.624Z,6.54
2019-02-18T00:22:48.118Z,6.55
2019-02-18T00:25:16.620Z,6.51
2019-02-18T00:27:45.175Z,6.51
2019-02-18T00:30:14.116Z,6.53
2019-02-18T00:32:42.594Z,6.51
2019-02-18T00:35:11.097Z,6.50
2019-02-18T00:37:39.577Z,6.47
2019-02-18T00:40:09.744Z,6.46
2019-02-18T00:42:38.236Z,6.41
2019-02-18T00:45:12.249Z,6.37
2019-02-18T00:47:40.722Z,6.43
2019-02-18T00:50:10.490Z,6.36
2019-02-18T00:52:38.965Z,6.39
2019-02-18T00:55:08.623Z,6.31
2019-02-18T00:57:37.161Z,6.29
2019-02-18T01:00:12.238Z,6.26
2019-02-18T01:02:40.821Z,6.26
2019-02-18T01:05:09.819Z,6.18
2019-02-18T01:07:38.388Z,6.20
2019-02-18T01:10:09.908Z,6.15
2019-02-18T01:12:38.423Z,6.05
2019-02-18T01:15:09.816Z,6.11
2019-02-18T01:17:38.370Z,6.14
2019-02-18T01:20:09.825Z,5.98
2019-02-18T01:22:38.334Z,6.08
2019-02-18T01:25:08.935Z,6.07
2019-02-18T01:27:37.474Z,6.08
2019-02-18T01:30:09.261Z,6.11
2019-02-18T01:32:37.755Z,6.10
2019-02-18T01:35:06.659Z,6.06
2019-02-18T01:37:44.827Z,6.03
2019-02-18T01:40:08.284Z,6.04
2019-02-18T01:42:36.812Z,5.99
2019-02-18T01:45:07.986Z,5.99
2019-02-18T01:47:36.435Z,5.92
2019-02-18T01:50:07.814Z,5.99
2019-02-18T01:52:36.319Z,5.97
2019-02-18T01:55:05.547Z,5.98
2019-02-18T01:57:34.037Z,5.89
2019-02-18T02:00:02.504Z,5.94
2019-02-18T02:02:30.997Z,5.80
2019-02-18T02:04:59.471Z,5.82
2019-02-18T02:07:28.054Z,5.81
2019-02-18T02:09:56.517Z,5.74
2019-02-18T02:12:25.242Z,5.76
2019-02-18T02:14:53.729Z,5.81
2019-02-18T02:17:22.241Z,5.79
2019-02-18T02:19:50.714Z,5.76
2019-02-18T02:22:19.195Z,5.79
2019-02-18T02:24:47.681Z,5.72
2019-02-18T02:27:16.164Z,5.69
2019-02-18T02:29:44.709Z,5.73
2019-02-18T02:32:13.192Z,5.68
2019-02-18T02:34:41.673Z,5.62
2019-02-18T02:37:10.150Z,5.58
2019-02-18T02:39:38.639Z,5.54
2019-02-18T02:42:07.115Z,5.56
2019-02-18T02:44:35.602Z,5.47
2019-02-18T02:47:04.080Z,5.50
2019-02-18T02:49:32.582Z,5.41
2019-02-18T02:52:01.042Z,5.37
2019-02-18T02:54:29.533Z,5.31
2019-02-18T02:56:58.002Z,5.37
2019-02-18T02:59:26.628Z,5.36
2019-02-18T03:01:55.109Z,5.34
2019-02-18T03:04:23.611Z,5.35
2019-02-18T03:06:52.090Z,5.33
2019-02-18T03:09:20.712Z,5.37
2019-02-18T03:11:49.193Z,5.19
2019-02-18T03:14:17.683Z,5.23
2019-02-18T03:16:46.165Z,5.19
2019-02-18T03:19:14.665Z,5.14
2019-02-18T03:21:43.137Z,5.11
2019-02-18T03:24:11.625Z,5.21
2019-02-18T03:26:40.105Z,5.15
2019-02-18T03:29:11.652Z,5.09
2019-02-18T03:31:40.123Z,5.02
2019-02-18T03:34:33.698Z,4.95
2019-02-18T03:37:02.146Z,4.93
2019-02-18T03:39:30.652Z,4.91
2019-02-18T03:44:26.871Z,4.89
2019-02-18T03:46:55.378Z,4.85
2019-02-18T03:49:23.858Z,4.88
2019-02-18T03:51:52.363Z,4.86
2019-02-18T03:54:20.843Z,4.79
2019-02-18T03:56:49.348Z,4.67
2019-02-18T03:59:17.810Z,4.68
2019-02-18T04:01:46.313Z,4.77
2019-02-18T04:04:14.771Z,4.65
2019-02-18T04:06:43.279Z,4.59
2019-02-18T04:09:11.738Z,4.61
2019-02-18T04:11:40.242Z,4.58
2019-02-18T04:14:08.726Z,4.63
2019-02-18T04:16:37.226Z,4.54
2019-02-18T04:19:05.722Z,4.42
2019-02-18T04:21:34.204Z,4.47
2019-02-18T04:24:02.719Z,4.49
2019-02-18T04:26:31.247Z,4.50
2019-02-18T04:28:59.751Z,4.40
2019-02-18T04:31:28.234Z,4.44
2019-02-18T04:33:56.709Z,4.38
2019-02-18T04:36:25.193Z,4.41
2019-02-18T04:38:54.545Z,4.34
2019-02-18T04:41:23.178Z,4.36
2019-02-18T04:43:51.659Z,4.29
2019-02-18T04:46:20.185Z,4.24
2019-02-18T04:48:48.673Z,4.27
2019-02-18T04:51:17.188Z,4.26
2019-02-18T04:53:45.658Z,4.21
2019-02-18T04:56:14.142Z,4.20
2019-02-18T04:58:42.621Z,4.12
2019-02-18T05:01:11.103Z,4.20
2019-02-18T05:03:39.595Z,4.11
2019-02-18T05:06:08.079Z,4.14
2019-02-18T05:08:36.562Z,4.11
2019-02-18T05:11:05.030Z,4.03
2019-02-18T05:13:33.511Z,4.08
2019-02-18T05:16:01.979Z,3.98
2019-02-18T05:18:30.475Z,4.00
2019-02-18T05:20:58.955Z,3.93
2019-02-18T05:23:27.463Z,3.95
2019-02-18T05:25:55.943Z,3.92
2019-02-18T05:28:24.455Z,3.94
2019-02-18T05:30:52.938Z,3.86
2019-02-18T05:33:21.429Z,3.86
2019-02-18T05:35:49.918Z,3.83
2019-02-18T05:38:18.430Z,3.86
2019-02-18T05:40:46.888Z,3.84
2019-02-18T05:43:15.395Z,3.81
2019-02-18T05:45:43.851Z,3.76
2019-02-18T05:48:12.385Z,3.75
2019-02-18T05:50:40.884Z,3.74
2019-02-18T05:53:09.399Z,3.83
2019-02-18T05:55:37.868Z,3.73
2019-02-18T05:58:06.355Z,3.75
2019-02-18T06:00:34.843Z,3.60
2019-02-18T06:03:03.346Z,3.60
2019-02-18T06:05:31.819Z,3.64
2019-02-18T06:08:00.352Z,3.62
2019-02-18T06:10:28.833Z,3.52
2019-02-18T06:12:57.410Z,3.58
2019-02-18T06:15:25.823Z,3.56
2019-02-18T06:17:54.367Z,3.62
2019-02-18T06:20:22.862Z,3.57
2019-02-18T06:22:51.375Z,3.56
2019-02-18T06:25:19.865Z,3.55
2019-02-18T06:27:48.384Z,3.58
2019-02-18T06:30:16.839Z,3.63
2019-02-18T06:32:45.343Z,3.61
2019-02-18T06:35:13.843Z,3.58
2019-02-18T06:37:42.459Z,3.48
2019-02-18T06:40:10.941Z,3.50
2019-02-18T06:42:39.431Z,3.46
2019-02-18T06:45:28.245Z,3.51
2019-02-18T06:47:58.345Z,3.53
2019-02-18T06:50:26.789Z,3.56
2019-02-18T06:52:55.273Z,3.57
2019-02-18T06:55:23.755Z,3.61
2019-02-18T06:58:12.619Z,3.56
2019-02-18T07:00:45.175Z,3.61
2019-02-18T07:05:59.159Z,3.54
2019-02-18T07:08:31.730Z,3.62
2019-02-18T07:11:01.849Z,3.69
2019-02-18T07:13:30.329Z,3.75
2019-02-18T07:15:58.892Z,3.67
2019-02-18T07:18:27.490Z,3.74
2019-02-18T07:20:56.077Z,3.80
2019-02-18T07:23:24.566Z,3.81
2019-02-18T07:25:53.110Z,3.80
2019-02-18T07:28:21.596Z,3.84
2019-02-18T07:30:50.100Z,3.85
2019-02-18T07:33:18.591Z,3.91
2019-02-18T07:35:47.094Z,3.99
2019-02-18T07:38:15.557Z,4.05
2019-02-18T07:40:44.055Z,4.12
2019-02-18T07:43:12.530Z,4.15
2019-02-18T07:45:41.026Z,4.20
2019-02-18T07:48:09.503Z,4.32
2019-02-18T07:50:40.766Z,4.37
2019-02-18T07:53:09.227Z,4.47
2019-02-18T07:55:37.729Z,4.58
2019-02-18T07:58:06.192Z,4.64
2019-02-18T08:00:34.667Z,4.82
2019-02-18T08:03:03.140Z,4.97
2019-02-18T08:05:31.641Z,5.09
2019-02-18T08:08:00.107Z,5.27
2019-02-18T08:10:28.619Z,5.48
2019-02-18T08:12:57.074Z,5.71
2019-02-18T08:15:25.583Z,5.91
2019-02-18T08:17:54.042Z,6.22
2019-02-18T08:20:22.532Z,6.40
2019-02-18T08:22:51.002Z,6.69
2019-02-18T08:25:19.489Z,6.96
2019-02-18T08:27:47.958Z,7.31
2019-02-18T08:30:16.531Z,7.70
2019-02-18T08:32:44.997Z,8.15
2019-02-18T08:35:13.514Z,8.37
2019-02-18T08:37:42.030Z,8.49
2019-02-18T08:40:10.590Z,8.93
2019-02-18T08:42:39.065Z,9.37
2019-02-18T08:45:10.901Z,9.32
2019-02-18T08:47:39.391Z,9.57
2019-02-18T08:50:10.684Z,9.81
2019-02-18T08:52:39.209Z,9.89
2019-02-18T08:55:13.097Z,10.07
2019-02-18T08:57:41.602Z,10.34
2019-02-18T09:00:15.433Z,10.54
2019-02-18T09:02:43.927Z,10.77
2019-02-18T09:05:12.539Z,10.67
2019-02-18T09:07:41.182Z,11.10
2019-02-18T09:10:14.458Z,11.40
2019-02-18T09:12:42.959Z,11.67
2019-02-18T09:15:14.178Z,11.91
2019-02-18T09:17:42.474Z,12.05
2019-02-18T09:20:11.126Z,12.10
2019-02-18T09:22:59.553Z,12.57
2019-02-18T09:25:38.652Z,12.82
2019-02-18T09:28:07.132Z,12.68
2019-02-18T09:30:37.248Z,13.06
2019-02-18T09:33:05.778Z,13.06
2019-02-18T09:35:34.244Z,13.38
2019-02-18T09:38:02.753Z,13.49
2019-02-18T09:40:31.236Z,13.74
2019-02-18T09:42:59.726Z,13.97
2019-02-18T09:45:28.223Z,14.17
2019-02-18T09:47:57.066Z,14.44
2019-02-18T09:50:25.544Z,14.45
2019-02-18T09:52:54.059Z,14.55
2019-02-18T09:55:22.535Z,14.79
2019-02-18T09:57:51.038Z,14.11
2019-02-18T10:00:19.527Z,14.36
2019-02-18T10:02:48.020Z,14.91
2019-02-18T10:05:16.500Z,15.03
2019-02-18T10:07:46.042Z,15.29
2019-02-18T10:10:14.532Z,15.65
2019-02-18T10:12:43.054Z,15.74
2019-02-18T10:15:12.065Z,15.65
2019-02-18T10:17:40.552Z,15.76
2019-02-18T10:20:13.073Z,15.96
2019-02-18T10:22:41.570Z,16.05
2019-02-18T10:25:11.793Z,15.79
2019-02-18T10:27:40.312Z,16.20
2019-02-18T10:30:10.876Z,16.07
2019-02-18T10:32:39.383Z,16.23
2019-02-18T10:35:13.339Z,16.36
2019-02-18T10:37:41.845Z,16.19
2019-02-18T10:40:11.151Z,16.48
2019-02-18T10:42:39.661Z,16.44
2019-02-18T10:45:11.250Z,16.54
2019-02-18T10:47:39.738Z,16.57
2019-02-18T10:50:10.563Z,16.69
2019-02-18T10:52:39.064Z,16.49
2019-02-18T10:55:09.785Z,16.34
2019-02-18T10:57:38.674Z,16.59
2019-02-18T11:00:10.184Z,15.87
2019-02-18T11:02:38.680Z,15.86
2019-02-18T11:05:08.099Z,15.92
2019-02-18T11:07:36.596Z,15.77
2019-02-18T11:10:08.309Z,16.18
2019-02-18T11:12:36.801Z,16.04
2019-02-18T11:15:06.841Z,16.10
2019-02-18T11:17:38.916Z,15.78
2019-02-18T11:20:07.591Z,15.64
2019-02-18T11:22:36.098Z,15.69
2019-02-18T11:25:07.735Z,15.80
2019-02-18T11:27:36.240Z,15.55
2019-02-18T11:30:13.727Z,15.69
2019-02-18T11:32:42.248Z,15.72
2019-02-18T11:35:11.569Z,15.61
2019-02-18T11:37:40.084Z,15.65
2019-02-18T11:40:11.806Z,15.41
2019-02-18T11:42:40.358Z,15.21
2019-02-18T11:45:13.961Z,15.16
2019-02-18T11:47:42.523Z,15.34
2019-02-18T11:50:13.056Z,15.32
2019-02-18T11:52:41.556Z,15.14
2019-02-18T11:55:12.092Z,15.07
2019-02-18T11:57:40.942Z,15.04
2019-02-18T12:00:16.380Z,15.03
2019-02-18T12:02:45.006Z,15.04
2019-02-18T12:05:14.029Z,15.02
2019-02-18T12:07:42.759Z,14.85
2019-02-18T12:10:12.299Z,14.74
2019-02-18T12:12:41.224Z,14.92
2019-02-18T12:15:14.102Z,14.96
2019-02-18T12:17:42.607Z,14.75
2019-02-18T12:20:15.059Z,14.76
2019-02-18T12:22:43.549Z,14.66
2019-02-18T12:25:13.404Z,14.64
2019-02-18T12:27:42.216Z,14.63
2019-02-18T12:30:13.763Z,14.52
2019-02-18T12:32:42.245Z,14.52
2019-02-18T12:35:11.095Z,14.53
2019-02-18T12:37:39.780Z,14.46
2019-02-18T12:40:13.014Z,14.50
2019-02-18T12:42:42.595Z,14.39
2019-02-18T12:45:12.606Z,14.37
2019-02-18T12:47:41.346Z,14.41
2019-02-18T12:50:11.283Z,14.36
2019-02-18T12:52:39.810Z,14.34
2019-02-18T12:55:09.607Z,14.32
2019-02-18T12:57:40.174Z,14.31
2019-02-18T13:00:14.041Z,14.30
2019-02-18T13:02:44.627Z,14.27
2019-02-18T13:05:14.895Z,14.30
2019-02-18T13:07:43.434Z,14.30
2019-02-18T13:10:12.985Z,14.25
2019-02-18T13:12:41.741Z,14.27
2019-02-18T13:15:12.999Z,14.24
2019-02-18T13:17:42.817Z,14.22
2019-02-18T13:20:11.652Z,14.19
2019-02-18T13:22:40.264Z,14.22
2019-02-18T13:25:10.004Z,14.26
2019-02-18T13:27:38.524Z,14.25
2019-02-18T13:30:16.100Z,14.23
2019-02-18T13:32:44.689Z,14.24
2019-02-18T13:35:13.446Z,14.23
2019-02-18T13:37:41.921Z,14.27
2019-02-18T13:40:12.085Z,14.20
2019-02-18T13:42:40.556Z,14.21
2019-02-18T13:45:09.700Z,14.29
2019-02-18T13:47:38.190Z,14.20
2019-02-18T13:50:11.792Z,14.22
2019-02-18T13:52:40.290Z,14.26
2019-02-18T13:55:11.042Z,14.24
2019-02-18T13:57:40.156Z,14.24
2019-02-18T14:00:15.602Z,14.24
2019-02-18T14:02:44.080Z,14.21
2019-02-18T14:05:12.790Z,14.21
2019-02-18T14:07:41.276Z,14.21
2019-02-18T14:10:09.828Z,14.24
2019-02-18T14:12:38.685Z,14.28
2019-02-18T14:15:10.711Z,14.23
2019-02-18T14:17:39.201Z,14.28
2019-02-18T14:20:14.226Z,14.23
2019-02-18T14:22:42.887Z,14.27
2019-02-18T14:25:12.012Z,14.21
2019-02-18T14:27:40.496Z,14.18
2019-02-18T14:30:12.073Z,14.15
2019-02-18T14:32:40.551Z,14.13
2019-02-18T14:35:09.712Z,14.10
2019-02-18T14:37:38.207Z,14.10
2019-02-18T14:40:08.880Z,14.05
2019-02-18T14:42:37.358Z,14.09
2019-02-18T14:45:06.608Z,14.03
2019-02-18T14:47:35.113Z,14.00
2019-02-18T14:50:04.093Z,13.97
2019-02-18T14:52:32.570Z,13.95
2019-02-18T14:55:01.067Z,13.91
2019-02-18T14:57:29.731Z,13.91
2019-02-18T14:59:58.297Z,13.88
2019-02-18T15:02:28.285Z,13.85
2019-02-18T15:04:57.059Z,13.80
2019-02-18T15:07:25.622Z,13.78
2019-02-18T15:09:54.139Z,13.79
2019-02-18T15:12:23.183Z,13.74
2019-02-18T15:14:51.669Z,13.74
2019-02-18T15:17:20.188Z,13.72
2019-02-18T15:19:48.669Z,13.68
2019-02-18T15:22:17.197Z,13.67
2019-02-18T15:24:45.864Z,13.61
2019-02-18T15:27:14.743Z,13.57
2019-02-18T15:29:43.232Z,13.56
2019-02-18T15:32:11.745Z,13.51
2019-02-18T15:34:40.254Z,13.48
2019-02-18T15:37:08.757Z,13.44
2019-02-18T15:39:37.399Z,13.38
2019-02-18T15:42:06.321Z,13.36
2019-02-18T15:44:34.778Z,13.33
2019-02-18T15:47:03.306Z,13.27
2019-02-18T15:49:31.799Z,13.23
2019-02-18T15:52:00.376Z,13.21
2019-02-18T15:54:28.864Z,13.16
2019-02-18T15:56:57.365Z,13.09
2019-02-18T15:59:25.851Z,13.06
2019-02-18T16:01:54.350Z,13.02
2019-02-18T16:04:22.841Z,12.99
2019-02-18T16:06:51.342Z,12.94
2019-02-18T16:09:19.848Z,12.90
2019-02-18T16:11:48.336Z,12.85
2019-02-18T16:14:17.186Z,12.82
2019-02-18T16:16:45.702Z,12.75
2019-02-18T16:19:14.184Z,12.72
2019-02-18T16:21:42.698Z,12.68
2019-02-18T16:24:19.644Z,12.62
2019-02-18T16:26:41.419Z,12.60
2019-02-18T16:29:09.915Z,12.52
2019-02-18T16:31:38.479Z,12.46
2019-02-18T16:34:07.272Z,12.36
2019-02-18T16:36:35.798Z,12.28
2019-02-18T16:39:06.178Z,12.25
2019-02-18T16:41:36.218Z,12.15
2019-02-18T16:44:04.903Z,12.04
2019-02-18T16:46:33.844Z,12.01
2019-02-18T16:49:02.768Z,11.93
2019-02-18T16:51:31.290Z,11.89
2019-02-18T16:53:59.783Z,11.78
2019-02-18T16:56:28.267Z,11.71
2019-02-18T16:58:56.772Z,11.65
2019-02-18T17:01:25.255Z,11.61
2019-02-18T17:03:53.784Z,11.55
2019-02-18T17:06:22.263Z,11.49
2019-02-18T17:08:50.777Z,11.46
2019-02-18T17:11:20.025Z,11.37
2019-02-18T17:13:48.540Z,11.26
2019-02-18T17:16:17.430Z,11.20
2019-02-18T17:18:45.938Z,11.20
2019-02-18T17:21:14.425Z,11.11
2019-02-18T17:23:44.402Z,11.05
2019-02-18T17:26:12.867Z,10.98
2019-02-18T17:28:41.379Z,10.86
2019-02-18T17:31:10.334Z,10.81
2019-02-18T17:33:38.850Z,10.76
2019-02-18T17:36:07.328Z,10.69
2019-02-18T17:38:35.830Z,10.65
2019-02-18T17:41:04.372Z,10.48
2019-02-18T17:43:32.874Z,10.45
2019-02-18T17:46:01.357Z,10.38
2019-02-18T17:48:30.246Z,10.32
2019-02-18T17:50:58.762Z,10.31
2019-02-18T17:53:27.315Z,10.21
2019-02-18T17:55:55.820Z,10.15
2019-02-18T17:58:24.346Z,10.11
2019-02-18T18:00:54.468Z,10.04
2019-02-18T18:03:23.357Z,10.01
2019-02-18T18:05:51.870Z,10.05
2019-02-18T18:08:20.380Z,10.06
2019-02-18T18:10:48.937Z,9.89
2019-02-18T18:13:25.007Z,9.86
2019-02-18T18:15:47.729Z,9.88
2019-02-18T18:18:16.253Z,9.87
2019-02-18T18:20:44.727Z,9.83
2019-02-18T18:23:13.239Z,9.77
2019-02-18T18:25:41.723Z,9.75
2019-02-18T18:28:10.225Z,9.69
2019-02-18T18:30:38.758Z,9.64
2019-02-18T18:33:07.442Z,9.58
2019-02-18T18:35:36.087Z,9.56
2019-02-18T18:38:04.773Z,9.60
2019-02-18T18:40:33.255Z,9.57
2019-02-18T18:43:01.738Z,9.55
2019-02-18T18:45:30.218Z,9.47
2019-02-18T18:47:58.713Z,9.47
2019-02-18T18:50:27.565Z,9.44
2019-02-18T18:52:56.068Z,9.44
2019-02-18T18:55:24.547Z,9.39
2019-02-18T18:57:53.027Z,9.40
2019-02-18T19:00:26.838Z,9.34
2019-02-18T19:02:55.319Z,9.33
2019-02-18T19:05:24.056Z,9.25
2019-02-18T19:07:52.791Z,9.27
2019-02-18T19:10:21.355Z,9.22
2019-02-18T19:12:49.854Z,9.20
2019-02-18T19:15:18.909Z,9.12
2019-02-18T19:17:47.528Z,9.04
2019-02-18T19:20:16.200Z,9.02
2019-02-18T19:22:44.674Z,9.05
2019-02-18T19:25:13.838Z,9.00
2019-02-18T19:27:42.330Z,8.98
2019-02-18T19:30:16.968Z,8.98
2019-02-18T19:32:45.846Z,8.94
2019-02-18T19:35:14.350Z,8.93
2019-02-18T19:37:42.823Z,8.89
2019-02-18T19:40:13.485Z,8.89
2019-02-18T19:42:42.293Z,8.86
2019-02-18T19:45:19.379Z,8.81
2019-02-18T19:47:47.940Z,8.77
2019-02-18T19:50:18.207Z,8.75
2019-02-18T19:52:47.245Z,8.69
2019-02-18T19:55:16.049Z,8.64
2019-02-18T19:57:44.640Z,8.63
2019-02-18T20:00:18.965Z,8.56
2019-02-18T20:02:47.565Z,8.59
2019-02-18T20:05:17.699Z,8.54
2019-02-18T20:07:46.307Z,8.52
2019-02-18T20:10:15.198Z,8.48
2019-02-18T20:12:43.725Z,8.43
2019-02-18T20:15:14.843Z,8.39
2019-02-18T20:17:43.487Z,8.31
2019-02-18T20:20:13.900Z,8.31
2019-02-18T20:22:42.399Z,8.28
2019-02-18T20:25:10.949Z,8.20
2019-02-18T20:27:39.491Z,8.19
2019-02-18T20:30:15.738Z,8.17
2019-02-18T20:32:44.408Z,8.10
2019-02-18T20:35:13.433Z,8.03
2019-02-18T20:37:44.059Z,8.05
2019-02-18T20:40:13.679Z,8.00
2019-02-18T20:42:44.888Z,7.97
2019-02-18T20:45:14.981Z,7.88
2019-02-18T20:47:44.089Z,7.95
2019-02-18T20:50:14.396Z,7.93
2019-02-18T20:52:42.991Z,7.90
2019-02-18T20:55:14.027Z,7.88
2019-02-18T20:57:42.540Z,7.82
2019-02-18T21:00:32.860Z,7.82
2019-02-18T21:03:01.357Z,7.83
2019-02-18T21:05:29.869Z,7.79
2019-02-18T21:07:58.360Z,7.76
2019-02-18T21:10:26.887Z,7.69
2019-02-18T21:12:55.383Z,7.71
2019-02-18T21:15:23.931Z,7.67
2019-02-18T21:17:52.407Z,7.72
2019-02-18T21:20:20.929Z,7.70
2019-02-18T21:22:49.733Z,7.71
2019-02-18T21:25:18.220Z,7.67
2019-02-18T21:27:46.753Z,7.64
2019-02-18T21:30:18.611Z,7.63
2019-02-18T21:32:47.114Z,7.56
2019-02-18T21:35:15.705Z,7.64
2019-02-18T21:37:44.545Z,7.65
2019-02-18T21:40:13.273Z,7.65
2019-02-18T21:42:41.915Z,7.60
2019-02-18T21:45:15.390Z,7.60
2019-02-18T21:47:44.021Z,7.59
2019-02-18T21:50:12.854Z,7.58
2019-02-18T21:52:41.551Z,7.54
2019-02-18T21:55:11.699Z,7.53
2019-02-18T21:57:40.198Z,7.52
2019-02-18T22:00:13.440Z,7.46
2019-02-18T22:02:41.938Z,7.47
2019-02-18T22:05:10.443Z,7.41
2019-02-18T22:07:38.960Z,7.32
2019-02-18T22:10:09.209Z,7.24
2019-02-18T22:12:37.722Z,7.25
2019-02-18T22:15:08.172Z,7.22
2019-02-18T22:17:37.049Z,7.29
2019-02-18T22:20:08.489Z,7.29
2019-02-18T22:22:37.389Z,7.17
2019-02-18T22:25:08.817Z,7.11
2019-02-18T22:27:52.351Z,7.12
2019-02-18T22:30:20.873Z,7.17
2019-02-18T22:32:49.401Z,7.14
2019-02-18T22:35:18.075Z,7.12
2019-02-18T22:37:46.587Z,7.02
2019-02-18T22:40:22.838Z,7.06
2019-02-18T22:42:51.348Z,6.90
2019-02-18T22:45:19.854Z,6.92
2019-02-18T22:47:48.360Z,6.88
2019-02-18T22:50:17.310Z,6.90
2019-02-18T22:52:55.116Z,6.86
2019-02-18T22:55:23.600Z,6.84
2019-02-18T22:57:52.120Z,6.82
2019-02-18T23:00:43.388Z,6.86
2019-02-18T23:03:11.898Z,6.85
2019-02-18T23:05:40.461Z,6.82
2019-02-18T23:08:08.992Z,6.83
2019-02-18T23:10:37.503Z,6.86
2019-02-18T23:13:06.171Z,6.84
2019-02-18T23:15:35.119Z,6.79
2019-02-18T23:18:04.807Z,6.80
2019-02-18T23:20:33.307Z,6.76
2019-02-18T23:23:01.814Z,6.73
2019-02-18T23:25:30.341Z,6.80
2019-02-18T23:27:58.878Z,6.72
2019-02-18T23:30:27.341Z,6.71
2019-02-18T23:32:56.231Z,6.66
2019-02-18T23:35:24.774Z,6.53
2019-02-18T23:37:53.275Z,6.64
2019-02-18T23:40:21.802Z,6.57
2019-02-18T23:42:50.317Z,6.60
2019-02-18T23:45:18.820Z,6.56
2019-02-18T23:47:47.351Z,6.60
2019-02-18T23:50:15.853Z,6.56
2019-02-18T23:52:44.461Z,6.43
2019-02-18T23:55:13.191Z,6.42
2019-02-18T23:57:41.760Z,6.39
